<?xml version="1.0" encoding="UTF-8" standalone="no" ?>
<gpx xmlns="http://www.topografix.com/GPX/1/1" xmlns:xsi="http://www.w3.org/2001/XMLSchema-instance" xsi:schemaLocation="http://www.topografix.com/GPX/1/1 http://www.topografix.com/GPX/1/1/gpx.xsd" version="1.1" creator="VisuGPX - https://www.visugpx.com">
  <metadata>
    <name>Rando LN</name>
  </metadata>
  <trk>
    <name><![CDATA[Gournier]]></name>
    <extensions>
      <line xmlns="http://www.topografix.com/GPX/gpx_style/0/2">
        <color>0000FF</color>
        <width>4</width>
      </line>
    </extensions>
    <trkseg>
      <trkpt lat="44.35118" lon="4.01756">
        <ele>520.408</ele>
        <time>2017-01-24T19:56:23Z</time>
      </trkpt>
      <trkpt lat="44.35163" lon="4.01827">
        <ele>516.819</ele>
        <time>2017-01-24T19:56:03Z</time>
      </trkpt>
      <trkpt lat="44.35225" lon="4.01795">
        <ele>507.809</ele>
        <time>2017-01-24T19:55:43Z</time>
      </trkpt>
      <trkpt lat="44.35239" lon="4.01787">
        <ele>506.619</ele>
        <time>2017-01-24T19:55:23Z</time>
      </trkpt>
      <trkpt lat="44.35269" lon="4.01773">
        <ele>503.166</ele>
        <time>2017-01-24T19:55:03Z</time>
      </trkpt>
      <trkpt lat="44.35312" lon="4.01736">
        <ele>499.329</ele>
        <time>2017-01-24T19:54:43Z</time>
      </trkpt>
      <trkpt lat="44.3537" lon="4.0173">
        <ele>503.028</ele>
        <time>2017-01-24T19:54:23Z</time>
      </trkpt>
      <trkpt lat="44.35437" lon="4.01743">
        <ele>505.264</ele>
        <time>2017-01-24T19:54:03Z</time>
      </trkpt>
      <trkpt lat="44.35493" lon="4.01765">
        <ele>513.324</ele>
        <time>2017-01-24T19:53:43Z</time>
      </trkpt>
      <trkpt lat="44.35508" lon="4.0175">
        <ele>515.54</ele>
        <time>2017-01-24T19:53:23Z</time>
      </trkpt>
      <trkpt lat="44.35505" lon="4.01707">
        <ele>513.043</ele>
        <time>2017-01-24T19:53:03Z</time>
      </trkpt>
      <trkpt lat="44.35485" lon="4.01662">
        <ele>506.752</ele>
        <time>2017-01-24T19:52:43Z</time>
      </trkpt>
      <trkpt lat="44.35484" lon="4.01635">
        <ele>506.608</ele>
        <time>2017-01-24T19:52:23Z</time>
      </trkpt>
      <trkpt lat="44.35496" lon="4.01614">
        <ele>507.514</ele>
        <time>2017-01-24T19:52:03Z</time>
      </trkpt>
      <trkpt lat="44.35516" lon="4.01644">
        <ele>512.813</ele>
        <time>2017-01-24T19:51:43Z</time>
      </trkpt>
      <trkpt lat="44.35558" lon="4.01664">
        <ele>523.772</ele>
        <time>2017-01-24T19:51:23Z</time>
      </trkpt>
      <trkpt lat="44.35591" lon="4.01691">
        <ele>532.828</ele>
        <time>2017-01-24T19:51:03Z</time>
      </trkpt>
      <trkpt lat="44.35661" lon="4.01698">
        <ele>542.281</ele>
        <time>2017-01-24T19:50:43Z</time>
      </trkpt>
      <trkpt lat="44.35723" lon="4.01734">
        <ele>555.61</ele>
        <time>2017-01-24T19:50:23Z</time>
      </trkpt>
      <trkpt lat="44.35769" lon="4.01795">
        <ele>563.916</ele>
        <time>2017-01-24T19:50:03Z</time>
      </trkpt>
      <trkpt lat="44.35842" lon="4.01978">
        <ele>591.376</ele>
        <time>2017-01-24T19:49:43Z</time>
      </trkpt>
      <trkpt lat="44.3588" lon="4.02016">
        <ele>586.462</ele>
        <time>2017-01-24T19:49:23Z</time>
      </trkpt>
      <trkpt lat="44.35888" lon="4.02038">
        <ele>591.265</ele>
        <time>2017-01-24T19:49:03Z</time>
      </trkpt>
      <trkpt lat="44.35902" lon="4.02057">
        <ele>593.084</ele>
        <time>2017-01-24T19:48:43Z</time>
      </trkpt>
      <trkpt lat="44.35921" lon="4.02065">
        <ele>591.508</ele>
        <time>2017-01-24T19:48:23Z</time>
      </trkpt>
      <trkpt lat="44.35955" lon="4.02035">
        <ele>585.622</ele>
        <time>2017-01-24T19:48:03Z</time>
      </trkpt>
      <trkpt lat="44.3598" lon="4.02018">
        <ele>582.457</ele>
        <time>2017-01-24T19:47:43Z</time>
      </trkpt>
      <trkpt lat="44.36003" lon="4.02016">
        <ele>584.594</ele>
        <time>2017-01-24T19:47:23Z</time>
      </trkpt>
      <trkpt lat="44.36027" lon="4.02027">
        <ele>594.733</ele>
        <time>2017-01-24T19:47:03Z</time>
      </trkpt>
      <trkpt lat="44.36048" lon="4.02047">
        <ele>604.846</ele>
        <time>2017-01-24T19:46:43Z</time>
      </trkpt>
      <trkpt lat="44.36071" lon="4.02043">
        <ele>609.115</ele>
        <time>2017-01-24T19:46:23Z</time>
      </trkpt>
      <trkpt lat="44.36125" lon="4.01922">
        <ele>614.161</ele>
        <time>2017-01-24T19:46:03Z</time>
      </trkpt>
      <trkpt lat="44.36138" lon="4.01927">
        <ele>620.121</ele>
        <time>2017-01-24T19:45:43Z</time>
      </trkpt>
      <trkpt lat="44.36158" lon="4.01958">
        <ele>632.217</ele>
        <time>2017-01-24T19:45:23Z</time>
      </trkpt>
      <trkpt lat="44.36161" lon="4.01986">
        <ele>635.85</ele>
        <time>2017-01-24T19:45:03Z</time>
      </trkpt>
      <trkpt lat="44.36132" lon="4.02061">
        <ele>636.099</ele>
        <time>2017-01-24T19:44:43Z</time>
      </trkpt>
      <trkpt lat="44.36128" lon="4.02095">
        <ele>644.608</ele>
        <time>2017-01-24T19:44:23Z</time>
      </trkpt>
      <trkpt lat="44.36134" lon="4.02145">
        <ele>659.41</ele>
        <time>2017-01-24T19:44:03Z</time>
      </trkpt>
      <trkpt lat="44.36113" lon="4.02157">
        <ele>655.564</ele>
        <time>2017-01-24T19:43:43Z</time>
      </trkpt>
      <trkpt lat="44.36105" lon="4.02184">
        <ele>661.143</ele>
        <time>2017-01-24T19:43:23Z</time>
      </trkpt>
      <trkpt lat="44.36088" lon="4.02221">
        <ele>670.971</ele>
        <time>2017-01-24T19:43:03Z</time>
      </trkpt>
      <trkpt lat="44.36056" lon="4.02253">
        <ele>677.164</ele>
        <time>2017-01-24T19:42:43Z</time>
      </trkpt>
      <trkpt lat="44.36056" lon="4.02261">
        <ele>680.043</ele>
        <time>2017-01-24T19:42:23Z</time>
      </trkpt>
      <trkpt lat="44.36023" lon="4.02272">
        <ele>680.689</ele>
        <time>2017-01-24T19:42:03Z</time>
      </trkpt>
      <trkpt lat="44.36002" lon="4.02296">
        <ele>684.449</ele>
        <time>2017-01-24T19:41:43Z</time>
      </trkpt>
      <trkpt lat="44.36011" lon="4.02301">
        <ele>687.395</ele>
        <time>2017-01-24T19:41:23Z</time>
      </trkpt>
      <trkpt lat="44.36112" lon="4.02319">
        <ele>704.198</ele>
        <time>2017-01-24T19:41:03Z</time>
      </trkpt>
      <trkpt lat="44.36125" lon="4.02328">
        <ele>713.397</ele>
        <time>2017-01-24T19:40:43Z</time>
      </trkpt>
      <trkpt lat="44.36149" lon="4.02331">
        <ele>722.208</ele>
        <time>2017-01-24T19:40:23Z</time>
      </trkpt>
      <trkpt lat="44.36183" lon="4.02351">
        <ele>735.614</ele>
        <time>2017-01-24T19:40:03Z</time>
      </trkpt>
      <trkpt lat="44.36243" lon="4.02341">
        <ele>743.504</ele>
        <time>2017-01-24T19:39:43Z</time>
      </trkpt>
      <trkpt lat="44.3629" lon="4.02354">
        <ele>760.124</ele>
        <time>2017-01-24T19:39:23Z</time>
      </trkpt>
      <trkpt lat="44.36305" lon="4.02347">
        <ele>762.354</ele>
        <time>2017-01-24T19:39:03Z</time>
      </trkpt>
      <trkpt lat="44.36317" lon="4.02358">
        <ele>765.447</ele>
        <time>2017-01-24T19:38:43Z</time>
      </trkpt>
      <trkpt lat="44.36334" lon="4.02379">
        <ele>768.656</ele>
        <time>2017-01-24T19:38:23Z</time>
      </trkpt>
      <trkpt lat="44.36326" lon="4.02398">
        <ele>769.112</ele>
        <time>2017-01-24T19:38:03Z</time>
      </trkpt>
      <trkpt lat="44.36332" lon="4.02427">
        <ele>770.742</ele>
        <time>2017-01-24T19:37:43Z</time>
      </trkpt>
      <trkpt lat="44.36283" lon="4.0252">
        <ele>781.478</ele>
        <time>2017-01-24T19:37:23Z</time>
      </trkpt>
      <trkpt lat="44.36234" lon="4.0266">
        <ele>787.121</ele>
        <time>2017-01-24T19:37:03Z</time>
      </trkpt>
      <trkpt lat="44.36188" lon="4.02714">
        <ele>792.31</ele>
        <time>2017-01-24T19:36:43Z</time>
      </trkpt>
      <trkpt lat="44.36091" lon="4.0277">
        <ele>797.508</ele>
        <time>2017-01-24T19:36:23Z</time>
      </trkpt>
      <trkpt lat="44.36022" lon="4.02846">
        <ele>797.208</ele>
        <time>2017-01-24T19:36:03Z</time>
      </trkpt>
      <trkpt lat="44.3599" lon="4.02871">
        <ele>796.653</ele>
        <time>2017-01-24T19:35:43Z</time>
      </trkpt>
      <trkpt lat="44.35786" lon="4.02816">
        <ele>796.852</ele>
        <time>2017-01-24T19:35:23Z</time>
      </trkpt>
      <trkpt lat="44.35698" lon="4.02836">
        <ele>791.027</ele>
        <time>2017-01-24T19:35:03Z</time>
      </trkpt>
      <trkpt lat="44.35597" lon="4.02819">
        <ele>796.26</ele>
        <time>2017-01-24T19:34:43Z</time>
      </trkpt>
      <trkpt lat="44.35523" lon="4.02828">
        <ele>795.029</ele>
        <time>2017-01-24T19:34:23Z</time>
      </trkpt>
      <trkpt lat="44.35523" lon="4.02828">
        <ele>795.095</ele>
        <time>2017-01-24T19:34:03Z</time>
      </trkpt>
      <trkpt lat="44.35497" lon="4.02847">
        <ele>796.255</ele>
        <time>2017-01-24T19:33:43Z</time>
      </trkpt>
      <trkpt lat="44.35422" lon="4.02881">
        <ele>804.091</ele>
        <time>2017-01-24T19:33:23Z</time>
      </trkpt>
      <trkpt lat="44.35375" lon="4.02921">
        <ele>803.074</ele>
        <time>2017-01-24T19:33:03Z</time>
      </trkpt>
      <trkpt lat="44.35355" lon="4.0301">
        <ele>806.523</ele>
        <time>2017-01-24T19:32:43Z</time>
      </trkpt>
      <trkpt lat="44.35346" lon="4.03096">
        <ele>807.808</ele>
        <time>2017-01-24T19:32:23Z</time>
      </trkpt>
      <trkpt lat="44.35346" lon="4.03167">
        <ele>810.217</ele>
        <time>2017-01-24T19:32:03Z</time>
      </trkpt>
      <trkpt lat="44.35335" lon="4.03218">
        <ele>813.707</ele>
        <time>2017-01-24T19:31:43Z</time>
      </trkpt>
      <trkpt lat="44.35329" lon="4.03263">
        <ele>814.984</ele>
        <time>2017-01-24T19:31:23Z</time>
      </trkpt>
      <trkpt lat="44.35318" lon="4.03338">
        <ele>819.97</ele>
        <time>2017-01-24T19:31:03Z</time>
      </trkpt>
      <trkpt lat="44.35327" lon="4.03374">
        <ele>825.843</ele>
        <time>2017-01-24T19:30:43Z</time>
      </trkpt>
      <trkpt lat="44.3533" lon="4.03414">
        <ele>832.762</ele>
        <time>2017-01-24T19:30:23Z</time>
      </trkpt>
      <trkpt lat="44.3534" lon="4.03459">
        <ele>842.928</ele>
        <time>2017-01-24T19:30:03Z</time>
      </trkpt>
      <trkpt lat="44.35341" lon="4.03508">
        <ele>850.028</ele>
        <time>2017-01-24T19:29:43Z</time>
      </trkpt>
      <trkpt lat="44.35352" lon="4.0354">
        <ele>847.074</ele>
        <time>2017-01-24T19:29:23Z</time>
      </trkpt>
      <trkpt lat="44.35343" lon="4.0359">
        <ele>853.437</ele>
        <time>2017-01-24T19:29:03Z</time>
      </trkpt>
      <trkpt lat="44.35346" lon="4.03645">
        <ele>860.466</ele>
        <time>2017-01-24T19:28:43Z</time>
      </trkpt>
      <trkpt lat="44.35334" lon="4.03678">
        <ele>864.308</ele>
        <time>2017-01-24T19:28:23Z</time>
      </trkpt>
      <trkpt lat="44.35337" lon="4.0372">
        <ele>866.911</ele>
        <time>2017-01-24T19:28:03Z</time>
      </trkpt>
      <trkpt lat="44.35306" lon="4.03805">
        <ele>857.165</ele>
        <time>2017-01-24T19:27:43Z</time>
      </trkpt>
      <trkpt lat="44.3527" lon="4.03866">
        <ele>846.315</ele>
        <time>2017-01-24T19:27:23Z</time>
      </trkpt>
      <trkpt lat="44.35237" lon="4.03946">
        <ele>841.151</ele>
        <time>2017-01-24T19:27:03Z</time>
      </trkpt>
      <trkpt lat="44.3523" lon="4.0398">
        <ele>836.964</ele>
        <time>2017-01-24T19:26:43Z</time>
      </trkpt>
      <trkpt lat="44.35196" lon="4.04048">
        <ele>839.493</ele>
        <time>2017-01-24T19:26:23Z</time>
      </trkpt>
      <trkpt lat="44.35194" lon="4.04074">
        <ele>840.729</ele>
        <time>2017-01-24T19:26:03Z</time>
      </trkpt>
      <trkpt lat="44.35182" lon="4.04106">
        <ele>843.899</ele>
        <time>2017-01-24T19:25:43Z</time>
      </trkpt>
      <trkpt lat="44.35176" lon="4.04154">
        <ele>845.945</ele>
        <time>2017-01-24T19:25:23Z</time>
      </trkpt>
      <trkpt lat="44.35184" lon="4.04176">
        <ele>844.368</ele>
        <time>2017-01-24T19:25:03Z</time>
      </trkpt>
      <trkpt lat="44.35184" lon="4.04198">
        <ele>844.197</ele>
        <time>2017-01-24T19:24:43Z</time>
      </trkpt>
      <trkpt lat="44.35167" lon="4.04212">
        <ele>846.908</ele>
        <time>2017-01-24T19:24:23Z</time>
      </trkpt>
      <trkpt lat="44.35131" lon="4.04215">
        <ele>847.217</ele>
        <time>2017-01-24T19:24:03Z</time>
      </trkpt>
      <trkpt lat="44.35111" lon="4.04237">
        <ele>845.489</ele>
        <time>2017-01-24T19:23:43Z</time>
      </trkpt>
      <trkpt lat="44.35088" lon="4.04253">
        <ele>842.428</ele>
        <time>2017-01-24T19:23:23Z</time>
      </trkpt>
      <trkpt lat="44.35053" lon="4.04286">
        <ele>841.05</ele>
        <time>2017-01-24T19:23:03Z</time>
      </trkpt>
      <trkpt lat="44.3502" lon="4.04339">
        <ele>831.953</ele>
        <time>2017-01-24T19:22:43Z</time>
      </trkpt>
      <trkpt lat="44.34938" lon="4.04433">
        <ele>821.472</ele>
        <time>2017-01-24T19:22:23Z</time>
      </trkpt>
      <trkpt lat="44.34928" lon="4.0445">
        <ele>818.378</ele>
        <time>2017-01-24T19:22:03Z</time>
      </trkpt>
      <trkpt lat="44.34912" lon="4.04463">
        <ele>817.738</ele>
        <time>2017-01-24T19:21:43Z</time>
      </trkpt>
      <trkpt lat="44.34856" lon="4.04553">
        <ele>812.814</ele>
        <time>2017-01-24T19:21:23Z</time>
      </trkpt>
      <trkpt lat="44.3483" lon="4.04618">
        <ele>813.057</ele>
        <time>2017-01-24T19:21:03Z</time>
      </trkpt>
      <trkpt lat="44.34785" lon="4.04703">
        <ele>802.566</ele>
        <time>2017-01-24T19:20:43Z</time>
      </trkpt>
      <trkpt lat="44.34753" lon="4.04718">
        <ele>795.908</ele>
        <time>2017-01-24T19:20:23Z</time>
      </trkpt>
      <trkpt lat="44.34698" lon="4.0472">
        <ele>787.911</ele>
        <time>2017-01-24T19:20:03Z</time>
      </trkpt>
      <trkpt lat="44.34657" lon="4.04715">
        <ele>778.265</ele>
        <time>2017-01-24T19:19:43Z</time>
      </trkpt>
      <trkpt lat="44.34625" lon="4.04719">
        <ele>773.515</ele>
        <time>2017-01-24T19:19:23Z</time>
      </trkpt>
      <trkpt lat="44.34614" lon="4.04741">
        <ele>773.125</ele>
        <time>2017-01-24T19:19:03Z</time>
      </trkpt>
      <trkpt lat="44.34596" lon="4.04776">
        <ele>769.688</ele>
        <time>2017-01-24T19:18:43Z</time>
      </trkpt>
      <trkpt lat="44.34594" lon="4.04787">
        <ele>768.617</ele>
        <time>2017-01-24T19:18:23Z</time>
      </trkpt>
      <trkpt lat="44.34571" lon="4.04828">
        <ele>766.323</ele>
        <time>2017-01-24T19:18:03Z</time>
      </trkpt>
      <trkpt lat="44.34559" lon="4.04869">
        <ele>762.233</ele>
        <time>2017-01-24T19:17:43Z</time>
      </trkpt>
      <trkpt lat="44.34529" lon="4.04909">
        <ele>762.269</ele>
        <time>2017-01-24T19:17:23Z</time>
      </trkpt>
      <trkpt lat="44.34512" lon="4.04948">
        <ele>757.862</ele>
        <time>2017-01-24T19:17:03Z</time>
      </trkpt>
      <trkpt lat="44.34475" lon="4.04981">
        <ele>756.911</ele>
        <time>2017-01-24T19:16:43Z</time>
      </trkpt>
      <trkpt lat="44.34451" lon="4.05012">
        <ele>752.708</ele>
        <time>2017-01-24T19:16:23Z</time>
      </trkpt>
      <trkpt lat="44.34404" lon="4.05095">
        <ele>741.319</ele>
        <time>2017-01-24T19:16:03Z</time>
      </trkpt>
      <trkpt lat="44.34354" lon="4.05141">
        <ele>728.781</ele>
        <time>2017-01-24T19:15:43Z</time>
      </trkpt>
      <trkpt lat="44.34312" lon="4.052">
        <ele>720.867</ele>
        <time>2017-01-24T19:15:23Z</time>
      </trkpt>
      <trkpt lat="44.34285" lon="4.05278">
        <ele>721.576</ele>
        <time>2017-01-24T19:15:03Z</time>
      </trkpt>
      <trkpt lat="44.34153" lon="4.05396">
        <ele>678.059</ele>
        <time>2017-01-24T19:14:43Z</time>
      </trkpt>
      <trkpt lat="44.34123" lon="4.05397">
        <ele>668.138</ele>
        <time>2017-01-24T19:14:23Z</time>
      </trkpt>
      <trkpt lat="44.34107" lon="4.05412">
        <ele>663.134</ele>
        <time>2017-01-24T19:14:03Z</time>
      </trkpt>
      <trkpt lat="44.34094" lon="4.05471">
        <ele>655.854</ele>
        <time>2017-01-24T19:13:43Z</time>
      </trkpt>
      <trkpt lat="44.34052" lon="4.05577">
        <ele>628.25</ele>
        <time>2017-01-24T19:13:23Z</time>
      </trkpt>
      <trkpt lat="44.34086" lon="4.05594">
        <ele>630.843</ele>
        <time>2017-01-24T19:13:03Z</time>
      </trkpt>
      <trkpt lat="44.34108" lon="4.05633">
        <ele>629.122</ele>
        <time>2017-01-24T19:12:43Z</time>
      </trkpt>
      <trkpt lat="44.34125" lon="4.05678">
        <ele>627.008</ele>
        <time>2017-01-24T19:12:23Z</time>
      </trkpt>
      <trkpt lat="44.34164" lon="4.05711">
        <ele>628.727</ele>
        <time>2017-01-24T19:12:03Z</time>
      </trkpt>
      <trkpt lat="44.34187" lon="4.0575">
        <ele>624.461</ele>
        <time>2017-01-24T19:11:43Z</time>
      </trkpt>
      <trkpt lat="44.34205" lon="4.05762">
        <ele>625.677</ele>
        <time>2017-01-24T19:11:23Z</time>
      </trkpt>
      <trkpt lat="44.34258" lon="4.05765">
        <ele>625.778</ele>
        <time>2017-01-24T19:11:03Z</time>
      </trkpt>
      <trkpt lat="44.3429" lon="4.05756">
        <ele>625.531</ele>
        <time>2017-01-24T19:10:43Z</time>
      </trkpt>
      <trkpt lat="44.34348" lon="4.05764">
        <ele>628.57</ele>
        <time>2017-01-24T19:10:23Z</time>
      </trkpt>
      <trkpt lat="44.34378" lon="4.0586">
        <ele>615.166</ele>
        <time>2017-01-24T19:10:03Z</time>
      </trkpt>
      <trkpt lat="44.34382" lon="4.05894">
        <ele>611.696</ele>
        <time>2017-01-24T19:09:43Z</time>
      </trkpt>
      <trkpt lat="44.34439" lon="4.05963">
        <ele>611.392</ele>
        <time>2017-01-24T19:09:23Z</time>
      </trkpt>
      <trkpt lat="44.34498" lon="4.05978">
        <ele>607.365</ele>
        <time>2017-01-24T19:09:03Z</time>
      </trkpt>
      <trkpt lat="44.34511" lon="4.06005">
        <ele>601.594</ele>
        <time>2017-01-24T19:08:43Z</time>
      </trkpt>
      <trkpt lat="44.34628" lon="4.06024">
        <ele>590.308</ele>
        <time>2017-01-24T19:08:23Z</time>
      </trkpt>
      <trkpt lat="44.34651" lon="4.06041">
        <ele>584.221</ele>
        <time>2017-01-24T19:08:03Z</time>
      </trkpt>
      <trkpt lat="44.34664" lon="4.06035">
        <ele>584.565</ele>
        <time>2017-01-24T19:07:43Z</time>
      </trkpt>
      <trkpt lat="44.34694" lon="4.06045">
        <ele>576.693</ele>
        <time>2017-01-24T19:07:23Z</time>
      </trkpt>
      <trkpt lat="44.34723" lon="4.06041">
        <ele>573.097</ele>
        <time>2017-01-24T19:07:03Z</time>
      </trkpt>
      <trkpt lat="44.34746" lon="4.05974">
        <ele>571.59</ele>
        <time>2017-01-24T19:06:43Z</time>
      </trkpt>
      <trkpt lat="44.34763" lon="4.0594">
        <ele>567.269</ele>
        <time>2017-01-24T19:06:23Z</time>
      </trkpt>
      <trkpt lat="44.34768" lon="4.05922">
        <ele>567.655</ele>
        <time>2017-01-24T19:06:03Z</time>
      </trkpt>
      <trkpt lat="44.34767" lon="4.05897">
        <ele>571.355</ele>
        <time>2017-01-24T19:05:43Z</time>
      </trkpt>
      <trkpt lat="44.34773" lon="4.05895">
        <ele>569.051</ele>
        <time>2017-01-24T19:05:23Z</time>
      </trkpt>
      <trkpt lat="44.34782" lon="4.05934">
        <ele>561.094</ele>
        <time>2017-01-24T19:05:03Z</time>
      </trkpt>
      <trkpt lat="44.34779" lon="4.05968">
        <ele>560.523</ele>
        <time>2017-01-24T19:04:43Z</time>
      </trkpt>
      <trkpt lat="44.34783" lon="4.05985">
        <ele>559.408</ele>
        <time>2017-01-24T19:04:23Z</time>
      </trkpt>
      <trkpt lat="44.34792" lon="4.05967">
        <ele>555.526</ele>
        <time>2017-01-24T19:04:03Z</time>
      </trkpt>
      <trkpt lat="44.348" lon="4.0592">
        <ele>554.86</ele>
        <time>2017-01-24T19:03:43Z</time>
      </trkpt>
      <trkpt lat="44.34808" lon="4.05883">
        <ele>561.986</ele>
        <time>2017-01-24T19:03:23Z</time>
      </trkpt>
      <trkpt lat="44.34813" lon="4.05884">
        <ele>560.696</ele>
        <time>2017-01-24T19:03:03Z</time>
      </trkpt>
      <trkpt lat="44.34831" lon="4.05916">
        <ele>545.859</ele>
        <time>2017-01-24T19:02:43Z</time>
      </trkpt>
      <trkpt lat="44.34842" lon="4.05908">
        <ele>546.318</ele>
        <time>2017-01-24T19:02:23Z</time>
      </trkpt>
      <trkpt lat="44.34877" lon="4.05916">
        <ele>538.254</ele>
        <time>2017-01-24T19:02:03Z</time>
      </trkpt>
      <trkpt lat="44.34903" lon="4.05917">
        <ele>535.474</ele>
        <time>2017-01-24T19:01:43Z</time>
      </trkpt>
      <trkpt lat="44.34982" lon="4.05879">
        <ele>535.52</ele>
        <time>2017-01-24T19:01:23Z</time>
      </trkpt>
      <trkpt lat="44.35068" lon="4.0584">
        <ele>540.653</ele>
        <time>2017-01-24T19:01:03Z</time>
      </trkpt>
      <trkpt lat="44.35105" lon="4.05858">
        <ele>537.342</ele>
        <time>2017-01-24T19:00:43Z</time>
      </trkpt>
      <trkpt lat="44.35118" lon="4.05883">
        <ele>530.908</ele>
        <time>2017-01-24T19:00:23Z</time>
      </trkpt>
      <trkpt lat="44.35147" lon="4.05905">
        <ele>530.613</ele>
        <time>2017-01-24T19:00:03Z</time>
      </trkpt>
      <trkpt lat="44.35186" lon="4.0591">
        <ele>532.985</ele>
        <time>2017-01-24T18:59:43Z</time>
      </trkpt>
      <trkpt lat="44.35229" lon="4.05929">
        <ele>528.873</ele>
        <time>2017-01-24T18:59:23Z</time>
      </trkpt>
      <trkpt lat="44.35245" lon="4.05972">
        <ele>522.646</ele>
        <time>2017-01-24T18:59:03Z</time>
      </trkpt>
      <trkpt lat="44.35276" lon="4.06016">
        <ele>519.629</ele>
        <time>2017-01-24T18:58:43Z</time>
      </trkpt>
      <trkpt lat="44.35266" lon="4.0603">
        <ele>514.368</ele>
        <time>2017-01-24T18:58:23Z</time>
      </trkpt>
      <trkpt lat="44.35267" lon="4.06058">
        <ele>507.824</ele>
        <time>2017-01-24T18:58:03Z</time>
      </trkpt>
      <trkpt lat="44.35285" lon="4.0609">
        <ele>501.894</ele>
        <time>2017-01-24T18:57:43Z</time>
      </trkpt>
      <trkpt lat="44.35314" lon="4.06087">
        <ele>495.91</ele>
        <time>2020-09-09T02:59:08Z</time>
      </trkpt>
      <trkpt lat="44.35312" lon="4.06104">
        <ele>493.143</ele>
        <time>2020-09-09T02:58:48Z</time>
      </trkpt>
      <trkpt lat="44.35308" lon="4.06175">
        <ele>469.512</ele>
        <time>2020-09-09T02:58:28Z</time>
      </trkpt>
      <trkpt lat="44.35271" lon="4.06217">
        <ele>460.208</ele>
        <time>2020-09-09T02:58:08Z</time>
      </trkpt>
      <trkpt lat="44.352" lon="4.06245">
        <ele>447.126</ele>
        <time>2020-09-09T02:57:48Z</time>
      </trkpt>
      <trkpt lat="44.35162" lon="4.06166">
        <ele>457.733</ele>
        <time>2020-09-09T02:57:28Z</time>
      </trkpt>
      <trkpt lat="44.35102" lon="4.06084">
        <ele>466.778</ele>
        <time>2020-09-09T02:57:08Z</time>
      </trkpt>
      <trkpt lat="44.35105" lon="4.06146">
        <ele>464.28</ele>
        <time>2020-09-09T02:56:48Z</time>
      </trkpt>
      <trkpt lat="44.35093" lon="4.06233">
        <ele>452.933</ele>
        <time>2020-09-09T02:56:28Z</time>
      </trkpt>
      <trkpt lat="44.35033" lon="4.06327">
        <ele>460.992</ele>
        <time>2020-09-09T02:56:08Z</time>
      </trkpt>
      <trkpt lat="44.35026" lon="4.06377">
        <ele>445.798</ele>
        <time>2020-09-09T02:55:48Z</time>
      </trkpt>
      <trkpt lat="44.34937" lon="4.06433">
        <ele>452.618</ele>
        <time>2020-09-09T02:55:28Z</time>
      </trkpt>
      <trkpt lat="44.34902" lon="4.0645">
        <ele>462.644</ele>
        <time>2020-09-09T02:55:08Z</time>
      </trkpt>
      <trkpt lat="44.34884" lon="4.06465">
        <ele>462.057</ele>
        <time>2020-09-09T02:54:48Z</time>
      </trkpt>
      <trkpt lat="44.3488" lon="4.06512">
        <ele>446.596</ele>
        <time>2020-09-09T02:54:28Z</time>
      </trkpt>
      <trkpt lat="44.3489" lon="4.06553">
        <ele>441.508</ele>
        <time>2020-09-09T02:54:08Z</time>
      </trkpt>
      <trkpt lat="44.34859" lon="4.06581">
        <ele>443.119</ele>
        <time>2020-09-09T02:53:48Z</time>
      </trkpt>
      <trkpt lat="44.34844" lon="4.06571">
        <ele>444.409</ele>
        <time>2020-09-09T02:53:28Z</time>
      </trkpt>
      <trkpt lat="44.34838" lon="4.06628">
        <ele>429.519</ele>
        <time>2020-09-09T02:53:08Z</time>
      </trkpt>
      <trkpt lat="44.3481" lon="4.06674">
        <ele>425.843</ele>
        <time>2020-09-09T02:52:48Z</time>
      </trkpt>
      <trkpt lat="44.34751" lon="4.06672">
        <ele>434.446</ele>
        <time>2020-09-09T02:52:28Z</time>
      </trkpt>
      <trkpt lat="44.34723" lon="4.06685">
        <ele>437.295</ele>
        <time>2020-09-09T02:52:08Z</time>
      </trkpt>
      <trkpt lat="44.34692" lon="4.0674">
        <ele>436.741</ele>
        <time>2020-09-09T02:51:48Z</time>
      </trkpt>
      <trkpt lat="44.34709" lon="4.06766">
        <ele>433.011</ele>
        <time>2020-09-09T02:51:28Z</time>
      </trkpt>
      <trkpt lat="44.34712" lon="4.06835">
        <ele>442.597</ele>
        <time>2020-09-09T02:51:08Z</time>
      </trkpt>
      <trkpt lat="44.34727" lon="4.06895">
        <ele>446.17</ele>
        <time>2020-09-09T02:50:48Z</time>
      </trkpt>
      <trkpt lat="44.34776" lon="4.06932">
        <ele>450.059</ele>
        <time>2020-09-09T02:50:28Z</time>
      </trkpt>
      <trkpt lat="44.34764" lon="4.06958">
        <ele>452.908</ele>
        <time>2020-09-09T02:50:08Z</time>
      </trkpt>
      <trkpt lat="44.34751" lon="4.06977">
        <ele>456.41</ele>
        <time>2020-09-09T02:49:48Z</time>
      </trkpt>
      <trkpt lat="44.3476" lon="4.07003">
        <ele>460.064</ele>
        <time>2020-09-09T02:49:28Z</time>
      </trkpt>
      <trkpt lat="44.34734" lon="4.07022">
        <ele>467.743</ele>
        <time>2020-09-09T02:49:08Z</time>
      </trkpt>
      <trkpt lat="44.34727" lon="4.07046">
        <ele>468.232</ele>
        <time>2020-09-09T02:48:48Z</time>
      </trkpt>
      <trkpt lat="44.34679" lon="4.07128">
        <ele>465.885</ele>
        <time>2020-09-09T02:48:28Z</time>
      </trkpt>
      <trkpt lat="44.34648" lon="4.07199">
        <ele>472.394</ele>
        <time>2020-09-09T02:48:08Z</time>
      </trkpt>
      <trkpt lat="44.34636" lon="4.0725">
        <ele>470.15</ele>
        <time>2020-09-09T02:47:48Z</time>
      </trkpt>
      <trkpt lat="44.34641" lon="4.07322">
        <ele>466.16</ele>
        <time>2020-09-09T02:47:28Z</time>
      </trkpt>
      <trkpt lat="44.34559" lon="4.07294">
        <ele>469.086</ele>
        <time>2020-09-09T02:47:08Z</time>
      </trkpt>
      <trkpt lat="44.34469" lon="4.07302">
        <ele>467.239</ele>
        <time>2020-09-09T02:46:48Z</time>
      </trkpt>
      <trkpt lat="44.34393" lon="4.07337">
        <ele>450.248</ele>
        <time>2020-09-09T02:46:28Z</time>
      </trkpt>
      <trkpt lat="44.34424" lon="4.07364">
        <ele>447.608</ele>
        <time>2020-09-09T02:46:08Z</time>
      </trkpt>
      <trkpt lat="44.34392" lon="4.07397">
        <ele>442.021</ele>
        <time>2020-09-09T02:45:48Z</time>
      </trkpt>
      <trkpt lat="44.34405" lon="4.07412">
        <ele>439.201</ele>
        <time>2020-09-09T02:45:28Z</time>
      </trkpt>
      <trkpt lat="44.34434" lon="4.07421">
        <ele>428.439</ele>
        <time>2020-09-09T02:45:08Z</time>
      </trkpt>
      <trkpt lat="44.3438" lon="4.07455">
        <ele>421.987</ele>
        <time>2020-09-09T02:44:48Z</time>
      </trkpt>
      <trkpt lat="44.34362" lon="4.07461">
        <ele>420.59</ele>
        <time>2020-09-09T02:44:28Z</time>
      </trkpt>
      <trkpt lat="44.34378" lon="4.07477">
        <ele>418.749</ele>
        <time>2020-09-09T02:44:08Z</time>
      </trkpt>
      <trkpt lat="44.34413" lon="4.07481">
        <ele>417.475</ele>
        <time>2020-09-09T02:43:48Z</time>
      </trkpt>
      <trkpt lat="44.34508" lon="4.07412">
        <ele>435.875</ele>
        <time>2020-09-09T02:43:28Z</time>
      </trkpt>
      <trkpt lat="44.34547" lon="4.07434">
        <ele>431.331</ele>
        <time>2020-09-09T02:43:08Z</time>
      </trkpt>
      <trkpt lat="44.34555" lon="4.07481">
        <ele>427.184</ele>
        <time>2020-09-09T02:42:48Z</time>
      </trkpt>
      <trkpt lat="44.34585" lon="4.07562">
        <ele>428.353</ele>
        <time>2020-09-09T02:42:28Z</time>
      </trkpt>
      <trkpt lat="44.34588" lon="4.07601">
        <ele>420.008</ele>
        <time>2020-09-09T02:42:08Z</time>
      </trkpt>
      <trkpt lat="44.34608" lon="4.07689">
        <ele>409.217</ele>
        <time>2020-09-09T02:41:48Z</time>
      </trkpt>
      <trkpt lat="44.34633" lon="4.077">
        <ele>409.589</ele>
        <time>2020-09-09T02:41:28Z</time>
      </trkpt>
      <trkpt lat="44.34656" lon="4.07681">
        <ele>414.485</ele>
        <time>2020-09-09T02:41:08Z</time>
      </trkpt>
      <trkpt lat="44.34752" lon="4.07672">
        <ele>417.618</ele>
        <time>2020-09-09T02:40:48Z</time>
      </trkpt>
      <trkpt lat="44.34822" lon="4.07733">
        <ele>401.991</ele>
        <time>2020-09-09T02:40:28Z</time>
      </trkpt>
      <trkpt lat="44.34855" lon="4.07773">
        <ele>386.61</ele>
        <time>2020-09-09T02:40:08Z</time>
      </trkpt>
      <trkpt lat="44.34913" lon="4.07774">
        <ele>389.666</ele>
        <time>2020-09-09T02:39:48Z</time>
      </trkpt>
      <trkpt lat="44.34918" lon="4.07797">
        <ele>384.636</ele>
        <time>2020-09-09T02:39:28Z</time>
      </trkpt>
      <trkpt lat="44.34975" lon="4.07821">
        <ele>380.042</ele>
        <time>2020-09-09T02:39:08Z</time>
      </trkpt>
      <trkpt lat="44.35031" lon="4.07829">
        <ele>370.715</ele>
        <time>2020-09-09T02:38:48Z</time>
      </trkpt>
      <trkpt lat="44.35113" lon="4.07825">
        <ele>346.734</ele>
        <time>2020-09-09T02:38:28Z</time>
      </trkpt>
      <trkpt lat="44.35154" lon="4.07767">
        <ele>332.808</ele>
        <time>2020-09-09T02:38:08Z</time>
      </trkpt>
      <trkpt lat="44.35145" lon="4.07844">
        <ele>334.126</ele>
        <time>2020-09-09T02:37:48Z</time>
      </trkpt>
      <trkpt lat="44.3512" lon="4.07928">
        <ele>323.415</ele>
        <time>2020-09-09T02:37:28Z</time>
      </trkpt>
      <trkpt lat="44.35192" lon="4.07887">
        <ele>307.798</ele>
        <time>2020-09-09T02:37:08Z</time>
      </trkpt>
      <trkpt lat="44.3521" lon="4.07883">
        <ele>304.056</ele>
        <time>2020-09-09T02:36:48Z</time>
      </trkpt>
      <trkpt lat="44.35177" lon="4.0795">
        <ele>300.529</ele>
        <time>2020-09-09T02:36:28Z</time>
      </trkpt>
      <trkpt lat="44.35184" lon="4.07982">
        <ele>296.538</ele>
        <time>2020-09-09T02:36:08Z</time>
      </trkpt>
      <trkpt lat="44.35201" lon="4.08">
        <ele>287.734</ele>
        <time>2020-09-09T02:35:48Z</time>
      </trkpt>
      <trkpt lat="44.35228" lon="4.07971">
        <ele>291.224</ele>
        <time>2020-09-09T02:35:28Z</time>
      </trkpt>
      <trkpt lat="44.35245" lon="4.07976">
        <ele>288.27</ele>
        <time>2020-09-09T02:35:08Z</time>
      </trkpt>
      <trkpt lat="44.35254" lon="4.08021">
        <ele>286.333</ele>
        <time>2020-09-09T02:34:48Z</time>
      </trkpt>
      <trkpt lat="44.35242" lon="4.08058">
        <ele>283.892</ele>
        <time>2020-09-09T02:34:28Z</time>
      </trkpt>
      <trkpt lat="44.35244" lon="4.08103">
        <ele>282.308</ele>
        <time>2020-09-09T02:34:08Z</time>
      </trkpt>
      <trkpt lat="44.35272" lon="4.08111">
        <ele>294.12</ele>
        <time>2020-09-09T02:33:48Z</time>
      </trkpt>
      <trkpt lat="44.35313" lon="4.08092">
        <ele>302.428</ele>
        <time>2020-09-09T02:33:28Z</time>
      </trkpt>
      <trkpt lat="44.35348" lon="4.0809">
        <ele>313.975</ele>
        <time>2020-09-09T02:33:08Z</time>
      </trkpt>
      <trkpt lat="44.35343" lon="4.08122">
        <ele>315.353</ele>
        <time>2020-09-09T02:32:48Z</time>
      </trkpt>
      <trkpt lat="44.35381" lon="4.08131">
        <ele>317.816</ele>
        <time>2020-09-09T02:32:28Z</time>
      </trkpt>
      <trkpt lat="44.35409" lon="4.0812">
        <ele>320.245</ele>
        <time>2020-09-09T02:32:08Z</time>
      </trkpt>
      <trkpt lat="44.35412" lon="4.08086">
        <ele>326.681</ele>
        <time>2020-09-09T02:31:48Z</time>
      </trkpt>
      <trkpt lat="44.35436" lon="4.0809">
        <ele>327.231</ele>
        <time>2020-09-09T02:31:28Z</time>
      </trkpt>
      <trkpt lat="44.35478" lon="4.08081">
        <ele>336.917</ele>
        <time>2020-09-09T02:31:08Z</time>
      </trkpt>
      <trkpt lat="44.35576" lon="4.08">
        <ele>348.09</ele>
        <time>2020-09-09T02:30:48Z</time>
      </trkpt>
      <trkpt lat="44.35657" lon="4.07974">
        <ele>356.139</ele>
        <time>2020-09-09T02:30:28Z</time>
      </trkpt>
      <trkpt lat="44.35697" lon="4.07982">
        <ele>356.108</ele>
        <time>2020-09-09T02:30:08Z</time>
      </trkpt>
      <trkpt lat="44.35761" lon="4.07941">
        <ele>363.409</ele>
        <time>2020-09-09T02:29:48Z</time>
      </trkpt>
      <trkpt lat="44.35759" lon="4.08142">
        <ele>358.281</ele>
        <time>2020-09-09T02:29:28Z</time>
      </trkpt>
      <trkpt lat="44.35762" lon="4.08206">
        <ele>355.641</ele>
        <time>2020-09-09T02:29:08Z</time>
      </trkpt>
      <trkpt lat="44.35773" lon="4.08223">
        <ele>355.296</ele>
        <time>2020-09-09T02:28:48Z</time>
      </trkpt>
      <trkpt lat="44.35781" lon="4.08213">
        <ele>354.979</ele>
        <time>2020-09-09T02:28:28Z</time>
      </trkpt>
      <trkpt lat="44.35785" lon="4.0818">
        <ele>355.538</ele>
        <time>2020-09-09T02:28:08Z</time>
      </trkpt>
      <trkpt lat="44.35837" lon="4.08062">
        <ele>366.484</ele>
        <time>2020-09-09T02:27:48Z</time>
      </trkpt>
      <trkpt lat="44.35917" lon="4.07943">
        <ele>377.024</ele>
        <time>2020-09-09T02:27:28Z</time>
      </trkpt>
      <trkpt lat="44.3593" lon="4.07913">
        <ele>383.12</ele>
        <time>2020-09-09T02:27:08Z</time>
      </trkpt>
      <trkpt lat="44.35973" lon="4.07999">
        <ele>371.133</ele>
        <time>2020-09-09T02:26:48Z</time>
      </trkpt>
      <trkpt lat="44.36028" lon="4.08043">
        <ele>383.462</ele>
        <time>2020-09-09T02:26:28Z</time>
      </trkpt>
      <trkpt lat="44.36097" lon="4.08099">
        <ele>409.708</ele>
        <time>2020-09-09T02:26:08Z</time>
      </trkpt>
      <trkpt lat="44.36117" lon="4.0809">
        <ele>411.721</ele>
        <time>2020-09-09T02:25:48Z</time>
      </trkpt>
      <trkpt lat="44.36175" lon="4.08101">
        <ele>421.256</ele>
        <time>2020-09-09T02:25:28Z</time>
      </trkpt>
      <trkpt lat="44.36225" lon="4.08148">
        <ele>426.274</ele>
        <time>2020-09-09T02:25:08Z</time>
      </trkpt>
      <trkpt lat="44.36228" lon="4.08172">
        <ele>428.434</ele>
        <time>2020-09-09T02:24:48Z</time>
      </trkpt>
      <trkpt lat="44.36252" lon="4.08213">
        <ele>433.627</ele>
        <time>2020-09-09T02:24:28Z</time>
      </trkpt>
      <trkpt lat="44.36287" lon="4.08245">
        <ele>434.416</ele>
        <time>2020-09-09T02:24:08Z</time>
      </trkpt>
      <trkpt lat="44.36363" lon="4.08318">
        <ele>438.742</ele>
        <time>2020-09-09T02:23:48Z</time>
      </trkpt>
      <trkpt lat="44.36423" lon="4.08419">
        <ele>433.032</ele>
        <time>2020-09-09T02:23:28Z</time>
      </trkpt>
      <trkpt lat="44.36434" lon="4.08484">
        <ele>428.578</ele>
        <time>2020-09-09T02:23:08Z</time>
      </trkpt>
      <trkpt lat="44.36449" lon="4.08531">
        <ele>420.221</ele>
        <time>2020-09-09T02:22:48Z</time>
      </trkpt>
      <trkpt lat="44.36431" lon="4.08538">
        <ele>420.03</ele>
        <time>2020-09-09T02:22:28Z</time>
      </trkpt>
      <trkpt lat="44.36406" lon="4.08481">
        <ele>420.808</ele>
        <time>2020-09-09T02:22:08Z</time>
      </trkpt>
      <trkpt lat="44.36363" lon="4.08421">
        <ele>418.917</ele>
        <time>2020-09-09T02:21:48Z</time>
      </trkpt>
      <trkpt lat="44.36306" lon="4.08378">
        <ele>418.007</ele>
        <time>2020-09-09T02:21:28Z</time>
      </trkpt>
      <trkpt lat="44.3625" lon="4.08367">
        <ele>411.555</ele>
        <time>2020-09-09T02:21:08Z</time>
      </trkpt>
      <trkpt lat="44.36298" lon="4.08413">
        <ele>415.56</ele>
        <time>2020-09-09T02:20:48Z</time>
      </trkpt>
      <trkpt lat="44.36339" lon="4.08488">
        <ele>410.073</ele>
        <time>2020-09-09T02:20:28Z</time>
      </trkpt>
      <trkpt lat="44.36284" lon="4.08563">
        <ele>396.892</ele>
        <time>2020-09-09T02:20:08Z</time>
      </trkpt>
      <trkpt lat="44.36173" lon="4.08639">
        <ele>386.848</ele>
        <time>2020-09-09T02:19:48Z</time>
      </trkpt>
      <trkpt lat="44.3618" lon="4.08718">
        <ele>386.768</ele>
        <time>2020-09-09T02:19:28Z</time>
      </trkpt>
      <trkpt lat="44.36207" lon="4.08794">
        <ele>380.964</ele>
        <time>2020-09-09T02:19:08Z</time>
      </trkpt>
      <trkpt lat="44.36224" lon="4.08854">
        <ele>373.997</ele>
        <time>2020-09-09T02:18:48Z</time>
      </trkpt>
      <trkpt lat="44.36216" lon="4.08929">
        <ele>364.786</ele>
        <time>2020-09-09T02:18:28Z</time>
      </trkpt>
      <trkpt lat="44.36235" lon="4.09019">
        <ele>360.908</ele>
        <time>2020-09-09T02:18:08Z</time>
      </trkpt>
      <trkpt lat="44.36275" lon="4.09076">
        <ele>356.219</ele>
        <time>2020-09-09T02:17:48Z</time>
      </trkpt>
      <trkpt lat="44.363" lon="4.0902">
        <ele>356.609</ele>
        <time>2020-09-09T02:17:28Z</time>
      </trkpt>
      <trkpt lat="44.36339" lon="4.08972">
        <ele>357.719</ele>
        <time>2020-09-09T02:17:08Z</time>
      </trkpt>
      <trkpt lat="44.36414" lon="4.08929">
        <ele>356.192</ele>
        <time>2020-09-09T02:16:48Z</time>
      </trkpt>
      <trkpt lat="44.36339" lon="4.09009">
        <ele>350.985</ele>
        <time>2020-09-09T02:16:28Z</time>
      </trkpt>
      <trkpt lat="44.36323" lon="4.09084">
        <ele>342.334</ele>
        <time>2020-09-09T02:16:08Z</time>
      </trkpt>
      <trkpt lat="44.3633" lon="4.09153">
        <ele>335.55</ele>
        <time>2020-09-09T02:15:48Z</time>
      </trkpt>
      <trkpt lat="44.36322" lon="4.09218">
        <ele>332.19</ele>
        <time>2020-09-09T02:15:28Z</time>
      </trkpt>
      <trkpt lat="44.36351" lon="4.09291">
        <ele>320.356</ele>
        <time>2020-09-09T02:15:08Z</time>
      </trkpt>
      <trkpt lat="44.36346" lon="4.09314">
        <ele>320.399</ele>
        <time>2020-09-09T02:14:48Z</time>
      </trkpt>
      <trkpt lat="44.36327" lon="4.09317">
        <ele>323.858</ele>
        <time>2020-09-09T02:14:28Z</time>
      </trkpt>
      <trkpt lat="44.36404" lon="4.09472">
        <ele>292.708</ele>
        <time>2020-09-09T02:14:08Z</time>
      </trkpt>
      <trkpt lat="44.36438" lon="4.09452">
        <ele>290.918</ele>
        <time>2020-09-09T02:13:48Z</time>
      </trkpt>
      <trkpt lat="44.36474" lon="4.09469">
        <ele>286.717</ele>
        <time>2020-09-09T02:13:28Z</time>
      </trkpt>
      <trkpt lat="44.36558" lon="4.09424">
        <ele>284.036</ele>
        <time>2020-09-09T02:13:08Z</time>
      </trkpt>
      <trkpt lat="44.36583" lon="4.09441">
        <ele>284.235</ele>
        <time>2020-09-09T02:12:48Z</time>
      </trkpt>
    </trkseg>
  </trk>
</gpx>